createdAt,value
2017-10-09T00:01:35.265Z,7.97
2017-10-09T00:04:05.289Z,3.73
2017-10-09T00:06:39.896Z,3.73
2017-10-09T00:09:10.039Z,6.43
2017-10-09T00:11:45.421Z,4.80
2017-10-09T00:14:21.307Z,6.10
2017-10-09T00:16:50.374Z,4.70
2017-10-09T00:19:22.380Z,5.50
2017-10-09T00:21:50.559Z,5.83
2017-10-09T00:24:22.948Z,4.07
2017-10-09T00:26:51.203Z,4.03
2017-10-09T00:29:20.274Z,7.83
2017-10-09T00:31:48.584Z,5.03
2017-10-09T00:34:37.295Z,8.67
2017-10-09T00:37:05.395Z,6.53
2017-10-09T00:39:35.628Z,4.40
2017-10-09T00:45:15.563Z,4.33
2017-10-09T00:47:43.823Z,4.77
2017-10-09T00:50:18.133Z,8.37
2017-10-09T00:52:46.351Z,5.80
2017-10-09T00:55:14.494Z,5.30
2017-10-09T00:57:42.608Z,7.90
2017-10-09T01:00:33.880Z,5.57
2017-10-09T01:03:02.003Z,5.50
2017-10-09T01:05:54.027Z,7.17
2017-10-09T01:08:25.979Z,8.43
2017-10-09T01:11:05.240Z,10.17
2017-10-09T01:13:35.354Z,7.90
2017-10-09T01:16:08.296Z,9.93
2017-10-09T01:18:38.426Z,7.40
2017-10-09T01:21:18.996Z,5.73
2017-10-09T01:23:50.372Z,5.20
2017-10-09T01:26:18.514Z,7.40
2017-10-09T01:28:48.794Z,8.33
2017-10-09T01:31:18.839Z,8.00
2017-10-09T01:33:46.978Z,8.07
2017-10-09T01:36:23.564Z,7.60
2017-10-09T01:38:58.247Z,5.80
2017-10-09T01:41:26.389Z,6.03
2017-10-09T01:43:54.494Z,7.43
2017-10-09T01:46:27.993Z,6.47
2017-10-09T01:48:57.212Z,9.30
2017-10-09T01:51:35.595Z,9.03
2017-10-09T01:54:05.034Z,10.53
2017-10-09T01:56:33.148Z,9.13
2017-10-09T01:59:24.124Z,7.13
2017-10-09T02:02:05.534Z,7.80
2017-10-09T02:04:33.702Z,10.10
2017-10-09T02:07:02.817Z,6.70
2017-10-09T02:09:40.172Z,7.50
2017-10-09T02:12:11.414Z,8.30
2017-10-09T02:14:40.381Z,8.60
2017-10-09T02:17:27.942Z,11.90
2017-10-09T02:19:56.066Z,9.00
2017-10-09T02:22:36.673Z,12.37
2017-10-09T02:25:21.461Z,7.00
2017-10-09T02:27:51.343Z,9.40
2017-10-09T02:30:23.454Z,6.00
2017-10-09T02:32:58.818Z,11.20
2017-10-09T02:35:28.927Z,6.80
2017-10-09T02:38:09.126Z,5.47
2017-10-09T02:40:37.239Z,6.07
2017-10-09T02:43:13.107Z,5.13
2017-10-09T02:45:41.262Z,8.33
2017-10-09T02:48:12.606Z,4.70
2017-10-09T02:50:54.916Z,5.60
2017-10-09T02:53:25.103Z,4.93
2017-10-09T02:55:55.649Z,4.33
2017-10-09T02:58:24.719Z,5.33
2017-10-09T03:01:00.532Z,5.33
2017-10-09T03:03:29.615Z,8.90
2017-10-09T03:05:57.719Z,6.93
2017-10-09T03:08:26.833Z,8.93
2017-10-09T03:10:55.209Z,6.70
2017-10-09T03:13:24.366Z,6.00
2017-10-09T03:15:53.542Z,7.70
2017-10-09T03:18:24.338Z,6.60
2017-10-09T03:20:59.718Z,9.13
2017-10-09T03:23:38.142Z,8.93
2017-10-09T03:26:17.019Z,8.27
2017-10-09T03:28:50.491Z,7.37
2017-10-09T03:31:21.971Z,9.47
2017-10-09T03:34:04.138Z,5.73
2017-10-09T03:36:45.402Z,5.90
2017-10-09T03:39:13.498Z,7.87
2017-10-09T03:41:54.929Z,9.07
2017-10-09T03:44:26.501Z,6.13
2017-10-09T03:46:55.716Z,4.10
2017-10-09T03:49:23.835Z,7.40
2017-10-09T04:00:59.136Z,5.87
2017-10-09T04:03:29.427Z,5.53
2017-10-09T04:06:33.814Z,7.00
2017-10-09T04:09:24.147Z,5.33
2017-10-09T04:11:58.037Z,5.50
2017-10-09T04:14:35.256Z,4.73
2017-10-09T04:17:14.478Z,7.80
2017-10-09T04:19:44.634Z,4.13
2017-10-09T04:22:13.875Z,13.17
2017-10-09T04:34:03.916Z,8.90
2017-10-09T04:36:33.011Z,5.90
2017-10-09T04:42:32.093Z,6.27
2017-10-09T04:45:11.912Z,5.17
2017-10-09T04:47:41.831Z,8.80
2017-10-09T04:50:15.970Z,9.43
2017-10-09T04:52:44.907Z,12.67
2017-10-09T04:55:14.916Z,9.83
2017-10-09T04:57:50.415Z,12.10
2017-10-09T05:00:18.586Z,8.60
2017-10-09T05:02:46.686Z,9.17
2017-10-09T05:05:14.882Z,10.30
2017-10-09T05:07:43.957Z,7.20
2017-10-09T05:10:22.817Z,11.37
2017-10-09T05:12:50.928Z,7.20
2017-10-09T05:15:19.017Z,8.13
2017-10-09T05:17:47.177Z,7.83
2017-10-09T05:20:15.237Z,8.87
2017-10-09T05:22:43.351Z,12.97
2017-10-09T05:25:14.970Z,12.80
2017-10-09T05:27:53.249Z,10.40
2017-10-09T05:30:21.354Z,7.93
2017-10-09T05:32:50.382Z,9.53
2017-10-09T05:35:18.598Z,9.10
2017-10-09T05:37:46.721Z,9.53
2017-10-09T05:42:57.839Z,8.53
2017-10-09T05:45:29.971Z,8.47
2017-10-09T05:47:58.111Z,7.60
2017-10-09T05:50:27.710Z,7.53
2017-10-09T05:52:55.897Z,5.90
2017-10-09T05:55:24.099Z,8.60
2017-10-09T05:57:52.218Z,7.00
2017-10-09T06:00:20.366Z,6.17
2017-10-09T06:02:54.150Z,5.80
2017-10-09T06:05:24.517Z,7.57
2017-10-09T06:07:52.682Z,10.20
2017-10-09T06:10:20.822Z,7.83
2017-10-09T06:12:48.934Z,6.60
2017-10-09T06:15:17.059Z,5.70
2017-10-09T06:17:45.249Z,7.30
2017-10-09T06:20:17.765Z,6.73
2017-10-09T06:22:46.071Z,4.47
2017-10-09T06:25:15.700Z,5.70
2017-10-09T06:27:43.934Z,7.17
2017-10-09T06:30:12.093Z,7.73
2017-10-09T06:32:40.806Z,5.67
2017-10-09T06:35:08.970Z,4.77
2017-10-09T06:37:37.106Z,5.73
2017-10-09T06:40:07.323Z,12.87
2017-10-09T06:42:35.519Z,6.77
2017-10-09T06:45:03.650Z,4.30
2017-10-09T06:47:55.527Z,5.53
2017-10-09T06:50:23.622Z,8.20
2017-10-09T06:52:51.739Z,5.70
2017-10-09T06:55:21.815Z,8.37
2017-10-09T06:57:56.320Z,11.47
2017-10-09T07:00:30.122Z,6.40
2017-10-09T07:02:58.264Z,7.10
2017-10-09T07:11:19.612Z,4.90
2017-10-09T07:13:49.662Z,9.77
2017-10-09T07:16:17.867Z,7.70
2017-10-09T07:18:46.781Z,4.93
2017-10-09T07:21:18.997Z,4.93
2017-10-09T07:23:47.450Z,7.33
2017-10-09T07:26:15.654Z,7.90
2017-10-09T07:28:44.163Z,3.80
2017-10-09T07:31:28.611Z,5.00
2017-10-09T07:33:56.786Z,4.60
2017-10-09T07:36:27.689Z,5.87
2017-10-09T07:38:55.779Z,4.67
2017-10-09T07:41:24.025Z,4.43
2017-10-09T07:43:52.248Z,5.37
2017-10-09T07:46:20.354Z,3.30
2017-10-09T07:48:51.296Z,4.37
2017-10-09T07:51:20.184Z,4.80
2017-10-09T07:53:48.436Z,5.47
2017-10-09T07:56:18.507Z,7.60
2017-10-09T07:58:53.686Z,7.70
2017-10-09T08:01:21.828Z,7.20
2017-10-09T08:03:50.862Z,5.90
2017-10-09T08:06:19.011Z,6.07
2017-10-09T08:08:47.194Z,5.67
2017-10-09T08:11:15.847Z,4.53
2017-10-09T08:13:44.178Z,6.30
2017-10-09T08:16:12.332Z,5.27
2017-10-09T08:18:41.269Z,3.77
2017-10-09T08:21:09.374Z,4.97
2017-10-09T08:23:53.141Z,7.23
2017-10-09T08:26:21.247Z,6.37
2017-10-09T08:28:49.357Z,2.67
2017-10-09T08:31:17.560Z,3.27
2017-10-09T08:33:46.040Z,2.80
2017-10-09T08:36:17.990Z,7.07
2017-10-09T08:38:47.793Z,5.10
2017-10-09T08:41:16.231Z,5.80
2017-10-09T08:43:45.238Z,5.83
2017-10-09T08:48:50.079Z,6.30
2017-10-09T08:51:26.687Z,6.10
2017-10-09T08:53:54.811Z,6.90
2017-10-09T08:56:23.074Z,3.77
2017-10-09T08:58:51.194Z,4.80
2017-10-09T09:01:23.770Z,3.47
2017-10-09T09:03:51.929Z,4.90
2017-10-09T09:06:20.175Z,6.27
2017-10-09T09:08:49.321Z,4.97
2017-10-09T09:11:17.439Z,8.63
2017-10-09T09:13:45.603Z,3.23
2017-10-09T09:16:15.669Z,5.83
2017-10-09T09:18:43.835Z,3.93
2017-10-09T09:21:13.627Z,4.90
2017-10-09T09:23:42.503Z,3.50
2017-10-09T09:26:11.393Z,5.87
2017-10-09T09:28:41.323Z,5.30
2017-10-09T09:31:09.540Z,7.33
2017-10-09T09:33:37.655Z,5.30
2017-10-09T09:36:05.763Z,5.53
2017-10-09T09:38:34.803Z,12.13
2017-10-09T09:41:04.494Z,7.70
2017-10-09T09:43:32.812Z,6.10
2017-10-09T09:46:00.988Z,4.63
2017-10-09T09:48:34.344Z,4.73
2017-10-09T09:51:02.492Z,12.10
2017-10-09T09:53:30.594Z,7.97
2017-10-09T09:55:58.699Z,5.40
2017-10-09T09:58:26.814Z,5.63
2017-10-09T10:00:55.759Z,4.47
2017-10-09T10:03:23.898Z,6.20
2017-10-09T10:05:52.004Z,4.70
2017-10-09T10:08:20.135Z,6.67
2017-10-09T10:10:49.243Z,3.77
2017-10-09T10:13:17.517Z,4.30
2017-10-09T10:15:46.695Z,4.73
2017-10-09T10:18:18.632Z,4.77
2017-10-09T10:20:48.831Z,5.10
2017-10-09T10:23:17.735Z,3.97
2017-10-09T10:25:46.596Z,3.10
2017-10-09T10:28:14.828Z,6.90
2017-10-09T10:30:42.988Z,8.30
2017-10-09T10:33:14.955Z,4.57
2017-10-09T10:35:44.170Z,5.67
2017-10-09T10:38:12.462Z,5.17
2017-10-09T10:43:31.161Z,3.80
2017-10-09T10:48:47.893Z,4.03
2017-10-09T10:54:29.002Z,4.10
2017-10-09T10:56:57.209Z,2.53
2017-10-09T11:02:47.466Z,5.10
2017-10-09T11:05:25.775Z,4.37
2017-10-09T11:07:59.251Z,3.17
2017-10-09T11:16:23.414Z,3.43
2017-10-09T11:18:51.851Z,2.13
2017-10-09T11:21:27.895Z,5.50
2017-10-09T11:23:56.091Z,3.90
2017-10-09T11:26:25.082Z,3.30
2017-10-09T11:28:56.862Z,3.37
2017-10-09T11:31:27.766Z,3.60
2017-10-09T11:33:55.919Z,2.97
2017-10-09T11:36:24.762Z,2.50
2017-10-09T11:38:53.734Z,2.60
2017-10-09T11:41:25.306Z,3.13
2017-10-09T11:43:54.318Z,2.80
2017-10-09T11:46:22.605Z,6.50
2017-10-09T11:48:52.487Z,2.60
2017-10-09T11:51:22.515Z,3.30
2017-10-09T11:53:52.810Z,3.53
2017-10-09T11:56:21.032Z,2.30
2017-10-09T11:58:49.130Z,3.73
2017-10-09T12:01:17.310Z,2.37
2017-10-09T12:03:45.475Z,2.10
2017-10-09T12:06:14.868Z,1.77
2017-10-09T12:08:54.089Z,6.20
2017-10-09T12:11:22.319Z,2.10
2017-10-09T12:13:50.502Z,3.13
2017-10-09T12:16:23.956Z,2.97
2017-10-09T12:21:44.185Z,3.83
2017-10-09T12:24:13.242Z,2.10
2017-10-09T12:26:53.902Z,2.73
2017-10-09T12:29:23.239Z,6.00
2017-10-09T12:31:55.060Z,2.20
2017-10-09T12:34:25.484Z,2.20
2017-10-09T12:36:56.224Z,3.63
2017-10-09T12:39:24.682Z,2.00
2017-10-09T12:41:53.717Z,1.83
2017-10-09T12:44:24.449Z,2.00
2017-10-09T12:46:52.870Z,2.50
2017-10-09T12:49:24.267Z,4.20
2017-10-09T12:51:52.439Z,3.27
2017-10-09T12:54:34.947Z,2.00
2017-10-09T12:57:05.237Z,2.30
2017-10-09T12:59:33.618Z,3.20
2017-10-09T13:02:01.873Z,3.27
2017-10-09T13:04:29.986Z,2.53
2017-10-09T13:09:54.503Z,2.10
2017-10-09T13:12:24.314Z,3.60
2017-10-09T13:14:52.498Z,2.23
2017-10-09T13:17:22.533Z,1.60
2017-10-09T13:19:51.910Z,3.53
2017-10-09T13:22:21.143Z,1.97
2017-10-09T13:24:50.067Z,1.20
2017-10-09T13:27:18.186Z,1.87
2017-10-09T13:29:46.304Z,2.00
2017-10-09T13:34:58.061Z,1.53
2017-10-09T13:37:26.177Z,3.13
2017-10-09T13:39:54.318Z,1.73
2017-10-09T13:42:23.178Z,1.13
2017-10-09T13:44:54.685Z,2.03
2017-10-09T13:47:28.933Z,3.53
2017-10-09T13:49:57.452Z,3.70
2017-10-09T13:52:25.559Z,2.20
2017-10-09T13:55:17.930Z,2.93
2017-10-09T13:57:52.712Z,1.50
2017-10-09T14:05:37.039Z,2.77
2017-10-09T14:13:49.393Z,2.07
2017-10-09T14:16:17.504Z,1.57
2017-10-09T14:18:49.196Z,4.67
2017-10-09T14:21:17.314Z,2.70
2017-10-09T14:23:45.436Z,2.00
2017-10-09T14:26:13.561Z,2.70
2017-10-09T14:28:41.767Z,2.30
2017-10-09T14:31:09.914Z,3.10
2017-10-09T14:41:04.197Z,2.17
2017-10-09T14:43:33.207Z,3.10
2017-10-09T14:46:01.752Z,4.03
2017-10-09T14:48:33.271Z,4.60
2017-10-09T14:51:02.202Z,2.07
2017-10-09T14:53:30.322Z,1.90
2017-10-09T14:55:58.447Z,2.20
2017-10-09T14:58:26.541Z,1.67
2017-10-09T15:00:55.006Z,4.13
2017-10-09T15:03:23.842Z,2.87
2017-10-09T15:05:52.060Z,3.43
2017-10-09T15:08:20.213Z,4.37
2017-10-09T15:10:51.928Z,2.13
2017-10-09T15:13:20.266Z,8.70
2017-10-09T15:15:50.468Z,2.70
2017-10-09T15:18:18.590Z,2.37
2017-10-09T15:20:46.726Z,3.17
2017-10-09T15:23:15.050Z,2.50
2017-10-09T15:25:52.717Z,2.00
2017-10-09T15:28:20.812Z,1.97
2017-10-09T15:30:49.844Z,2.60
2017-10-09T15:33:17.995Z,2.40
2017-10-09T15:35:46.119Z,3.10
2017-10-09T15:38:21.005Z,2.40
2017-10-09T15:40:49.267Z,2.53
2017-10-09T15:45:58.611Z,3.50
2017-10-09T15:48:26.755Z,3.40
2017-10-09T15:50:55.313Z,2.10
2017-10-09T15:53:23.677Z,2.90
2017-10-09T15:55:51.916Z,2.27
2017-10-09T15:58:19.954Z,2.90
2017-10-09T16:00:48.095Z,3.20
2017-10-09T16:03:16.217Z,2.53
2017-10-09T16:05:55.886Z,3.40
2017-10-09T16:11:01.203Z,2.60
2017-10-09T16:13:29.298Z,2.90
2017-10-09T16:16:01.873Z,3.17
2017-10-09T16:18:30.799Z,3.53
2017-10-09T16:20:58.946Z,3.13
2017-10-09T16:23:27.227Z,3.60
2017-10-09T16:25:55.337Z,4.00
2017-10-09T16:28:24.319Z,3.93
2017-10-09T16:30:52.506Z,4.17
2017-10-09T16:33:21.226Z,8.83
2017-10-09T16:35:50.282Z,4.00
2017-10-09T16:38:18.431Z,4.47
2017-10-09T16:40:46.598Z,5.53
2017-10-09T16:43:14.729Z,6.30
2017-10-09T16:45:45.951Z,4.53
2017-10-09T16:48:14.484Z,5.67
2017-10-09T16:50:42.717Z,5.07
2017-10-09T16:53:13.481Z,6.00
2017-10-09T16:55:42.587Z,5.60
2017-10-09T16:58:20.128Z,6.60
2017-10-09T17:00:51.489Z,6.00
2017-10-09T17:03:24.663Z,6.60
2017-10-09T17:05:59.361Z,6.03
2017-10-09T17:08:27.487Z,6.20
2017-10-09T17:10:55.659Z,6.53
2017-10-09T17:13:24.170Z,6.83
2017-10-09T17:15:53.283Z,7.43
2017-10-09T17:18:25.647Z,6.77
2017-10-09T17:20:53.827Z,7.70
2017-10-09T17:23:29.702Z,7.70
2017-10-09T17:25:57.855Z,7.47
2017-10-09T17:28:26.182Z,11.73
2017-10-09T17:30:57.957Z,8.17
2017-10-09T17:33:27.248Z,7.10
2017-10-09T17:35:55.398Z,7.97
2017-10-09T17:38:23.776Z,6.77
2017-10-09T17:40:51.902Z,7.13
2017-10-09T17:43:23.179Z,6.00
2017-10-09T17:45:52.055Z,6.70
2017-10-09T17:48:23.766Z,5.77
2017-10-09T17:50:53.957Z,6.17
2017-10-09T17:53:24.587Z,6.67
2017-10-09T17:55:57.097Z,6.10
2017-10-09T17:58:27.209Z,5.70
2017-10-09T18:00:55.318Z,6.20
2017-10-09T18:03:24.029Z,5.40
2017-10-09T18:05:55.943Z,5.90
2017-10-09T18:08:26.847Z,5.77
2017-10-09T18:10:55.028Z,5.27
2017-10-09T18:13:24.973Z,5.03
2017-10-09T18:15:53.177Z,5.40
2017-10-09T18:18:21.396Z,6.23
2017-10-09T18:20:54.000Z,6.57
2017-10-09T18:23:22.188Z,7.17
2017-10-09T18:25:55.698Z,5.40
2017-10-09T18:28:23.942Z,6.03
2017-10-09T18:30:54.199Z,5.77
2017-10-09T18:33:22.307Z,5.27
2017-10-09T18:35:50.467Z,5.33
2017-10-09T18:38:29.825Z,6.10
2017-10-09T18:40:58.983Z,6.43
2017-10-09T18:43:30.429Z,7.33
2017-10-09T18:45:58.551Z,7.43
2017-10-09T18:48:30.545Z,7.53
2017-10-09T18:50:58.635Z,7.20
2017-10-09T18:53:32.419Z,7.90
2017-10-09T18:56:11.014Z,7.00
2017-10-09T18:58:49.337Z,7.23
2017-10-09T19:01:18.451Z,8.43
2017-10-09T19:03:52.543Z,8.10
2017-10-09T19:06:21.695Z,7.30
2017-10-09T19:08:49.860Z,7.67
2017-10-09T19:11:22.232Z,8.23
2017-10-09T19:13:50.337Z,8.13
2017-10-09T19:16:18.440Z,8.17
2017-10-09T19:18:51.334Z,7.13
2017-10-09T19:21:20.485Z,7.43
2017-10-09T19:23:51.652Z,6.87
2017-10-09T19:26:20.707Z,6.67
2017-10-09T19:28:49.088Z,7.07
2017-10-09T19:31:17.194Z,7.40
2017-10-09T19:33:46.186Z,5.87
2017-10-09T19:36:14.533Z,6.07
2017-10-09T19:38:46.555Z,6.73
2017-10-09T19:41:17.460Z,7.20
2017-10-09T19:43:46.553Z,7.30
2017-10-09T19:46:14.699Z,6.37
2017-10-09T19:48:42.961Z,6.70
2017-10-09T19:51:13.757Z,7.20
2017-10-09T19:53:54.526Z,6.33
2017-10-09T19:56:33.881Z,6.43
2017-10-09T19:59:14.415Z,8.50
2017-10-09T20:01:42.585Z,7.60
2017-10-09T20:04:12.470Z,6.13
2017-10-09T20:06:53.129Z,5.60
2017-10-09T20:09:22.961Z,6.43
2017-10-09T20:11:51.137Z,7.67
2017-10-09T20:14:24.450Z,7.63
2017-10-09T20:16:52.859Z,6.90
2017-10-09T20:19:20.983Z,5.73
2017-10-09T20:21:51.255Z,5.07
2017-10-09T20:27:20.011Z,4.73
2017-10-09T20:29:48.146Z,5.50
2017-10-09T20:32:16.355Z,5.13
2017-10-09T20:34:45.219Z,4.70
2017-10-09T20:37:15.174Z,4.80
2017-10-09T20:39:56.226Z,4.77
2017-10-09T20:42:24.482Z,5.00
2017-10-09T20:44:52.640Z,4.50
2017-10-09T20:47:20.758Z,4.80
2017-10-09T20:49:50.394Z,4.50
2017-10-09T20:52:18.516Z,5.40
2017-10-09T20:54:46.641Z,4.57
2017-10-09T20:57:15.671Z,4.10
2017-10-09T20:59:43.840Z,5.57
2017-10-09T21:02:11.953Z,4.53
2017-10-09T21:04:40.152Z,4.90
2017-10-09T21:07:08.363Z,5.00
2017-10-09T21:09:36.494Z,6.10
2017-10-09T21:12:04.727Z,6.03
2017-10-09T21:14:33.133Z,6.20
2017-10-09T21:17:08.397Z,6.83
2017-10-09T21:19:36.532Z,7.87
2017-10-09T21:22:05.407Z,7.57
2017-10-09T21:24:34.558Z,6.97
2017-10-09T21:27:02.882Z,6.90
2017-10-09T21:29:43.667Z,5.97
2017-10-09T21:32:11.952Z,4.60
2017-10-09T21:34:40.840Z,3.60
2017-10-09T21:37:11.980Z,2.70
2017-10-09T21:39:40.923Z,2.97
2017-10-09T21:42:09.035Z,2.20
2017-10-09T21:44:39.070Z,2.50
2017-10-09T21:47:07.246Z,3.13
2017-10-09T21:49:36.170Z,2.50
2017-10-09T21:52:04.279Z,2.47
2017-10-09T21:54:33.163Z,3.37
2017-10-09T21:57:02.079Z,2.93
2017-10-09T21:59:34.019Z,3.63
2017-10-09T22:02:02.253Z,3.50
2017-10-09T22:04:31.152Z,4.57
2017-10-09T22:07:00.666Z,3.90
2017-10-09T22:09:28.872Z,3.57
2017-10-09T22:11:57.010Z,3.67
2017-10-09T22:17:02.316Z,3.77
2017-10-09T22:19:31.933Z,3.93
2017-10-09T22:22:00.136Z,4.60
2017-10-09T22:24:28.306Z,5.63
2017-10-09T22:26:56.425Z,5.50
2017-10-09T22:29:24.534Z,5.23
2017-10-09T22:31:52.700Z,6.23
2017-10-09T22:34:20.799Z,6.43
2017-10-09T22:36:49.018Z,5.50
2017-10-09T22:39:17.131Z,6.40
2017-10-09T22:41:45.265Z,5.90
2017-10-09T22:44:13.397Z,5.80
2017-10-09T22:46:41.499Z,7.00
2017-10-09T22:49:09.616Z,6.63
2017-10-09T22:51:39.254Z,7.00
2017-10-09T22:54:07.514Z,8.03
2017-10-09T22:56:35.650Z,9.40
2017-10-09T22:59:03.754Z,8.60
2017-10-09T23:01:31.863Z,8.30
2017-10-09T23:03:59.982Z,10.90
2017-10-09T23:06:28.232Z,10.43
2017-10-09T23:08:56.400Z,10.00
2017-10-09T23:11:24.513Z,9.40
2017-10-09T23:13:52.706Z,10.40
2017-10-09T23:16:20.943Z,9.80
2017-10-09T23:18:49.085Z,8.93
2017-10-09T23:21:17.188Z,8.97
2017-10-09T23:23:45.286Z,9.13
2017-10-09T23:26:22.677Z,9.33
2017-10-09T23:28:50.803Z,10.50
2017-10-09T23:31:19.035Z,11.60
2017-10-09T23:33:48.119Z,13.07
2017-10-09T23:36:16.281Z,12.33
2017-10-09T23:38:44.415Z,14.30
2017-10-09T23:41:12.538Z,15.70
2017-10-09T23:43:40.676Z,14.50
2017-10-09T23:46:09.622Z,14.17
2017-10-09T23:48:38.427Z,14.27
2017-10-09T23:51:06.627Z,15.43
2017-10-09T23:53:34.887Z,16.13
2017-10-09T23:56:03.055Z,16.63
2017-10-09T23:58:37.242Z,17.70
